Time;durP1;ratioP1;P1;durP2;ratioP2;P2;SDS_P1;SDS_P2;PMS_P1;PMS_P2;Temp;Humidity;BMP_temperature;BMP_pressure;BME280_temperature;BME280_humidity;BME280_pressure;Samples;Min_cycle;Max_cycle;Signal;HPM_P1;HPM_P2
2022/08/08 00:01:56;;;;;;;1.73;1.63;;;;;;;16.02;49.58;101504.56;4995958;28;20029;-29
2022/08/08 00:04:29;;;;;;;1.40;1.30;;;;;;;16.07;49.97;101498.28;4987962;28;20466;-28
2022/08/08 00:07:00;;;;;;;1.88;1.58;;;;;;;15.99;48.97;101496.63;4974202;28;20404;-29
2022/08/08 00:09:41;;;;;;;1.45;1.35;;;;;;;15.94;48.17;101489.59;4991899;28;20031;-29
2022/08/08 00:12:08;;;;;;;1.30;1.30;;;;;;;15.90;48.26;101494.09;4992948;28;20027;-29
2022/08/08 00:14:49;;;;;;;1.67;1.58;;;;;;;15.88;48.18;101493.25;4958318;28;20042;-29
2022/08/08 00:17:38;;;;;;;1.50;1.40;;;;;;;15.73;48.62;101495.28;4992786;28;20033;-29
2022/08/08 00:20:08;;;;;;;2.45;1.40;;;;;;;15.75;48.72;101503.22;4973003;28;20038;-29
2022/08/08 00:22:46;;;;;;;1.80;1.70;;;;;;;15.71;49.07;101496.22;4977850;28;20114;-29
2022/08/08 00:25:19;;;;;;;1.65;1.55;;;;;;;15.68;49.04;101512.22;4989548;28;20034;-28
2022/08/08 00:27:46;;;;;;;1.92;1.40;;;;;;;15.72;49.48;101508.59;4990770;28;20126;-29
2022/08/08 00:30:12;;;;;;;1.55;1.45;;;;;;;15.69;49.83;101509.53;4990758;28;20048;-29
2022/08/08 00:32:45;;;;;;;1.48;1.38;;;;;;;15.63;49.72;101501.66;4991702;28;20030;-29
2022/08/08 00:35:26;;;;;;;1.70;1.42;;;;;;;15.55;50.04;101508.88;4992409;28;20030;-28
2022/08/08 00:38:06;;;;;;;1.70;1.60;;;;;;;15.51;50.04;101511.59;4993774;28;20033;-28
2022/08/08 00:40:37;;;;;;;1.52;1.42;;;;;;;15.50;50.05;101511.59;4996540;28;20461;-29
2022/08/08 00:43:26;;;;;;;;;;;;;;;15.42;50.09;101517.06;4988872;28;20034;-29
2022/08/08 00:46:14;;;;;;;1.30;1.25;;;;;;;15.42;50.59;101514.41;4990981;28;19998;-29
2022/08/08 00:48:55;;;;;;;2.55;1.70;;;;;;;15.38;50.48;101515.38;4983972;28;20022;-29
2022/08/08 00:51:44;;;;;;;1.55;1.45;;;;;;;15.41;50.96;101517.97;4996393;28;20026;-29
2022/08/08 00:54:34;;;;;;;1.60;1.50;;;;;;;15.46;50.97;101521.44;4993236;28;20104;-29
2022/08/08 00:57:21;;;;;;;3.63;1.50;;;;;;;15.37;50.73;101516.25;4989373;28;20470;-29
2022/08/08 01:00:02;;;;;;;1.52;1.40;;;;;;;15.35;51.22;101515.41;4991533;28;20069;-29
2022/08/08 01:02:39;;;;;;;1.57;1.47;;;;;;;15.32;50.63;101512.78;4992335;28;20116;-29
2022/08/08 01:05:42;;;;;;;2.08;1.70;;;;;;;15.24;51.13;101510.25;4997260;28;20026;-29
2022/08/08 01:08:37;;;;;;;1.52;1.42;;;;;;;15.21;51.07;101507.66;4992730;28;20097;-28
2022/08/08 01:11:33;;;;;;;4.88;1.77;;;;;;;15.24;51.36;101508.47;5026949;28;20109;-28
2022/08/08 01:14:39;;;;;;;2.05;1.50;;;;;;;15.18;51.97;101505.94;5001141;28;20514;-28
2022/08/08 01:17:38;;;;;;;1.77;1.60;;;;;;;15.18;51.59;101500.59;4991981;28;20038;-29
2022/08/08 01:20:29;;;;;;;1.50;1.40;;;;;;;15.08;51.70;101512.25;4974369;28;20029;-29
2022/08/08 01:23:26;;;;;;;1.50;1.40;;;;;;;15.14;52.00;101506.88;4978095;28;20026;-28
2022/08/08 01:26:03;;;;;;;2.00;1.73;;;;;;;15.19;52.10;101499.69;4973016;28;20058;-28
2022/08/08 01:29:18;;;;;;;2.40;1.55;;;;;;;15.04;52.14;101515.88;4985172;28;20034;-29
2022/08/08 01:32:10;;;;;;;1.95;1.52;;;;;;;15.04;52.14;101505.25;4992249;28;20072;-29
2022/08/08 01:35:08;;;;;;;2.03;1.92;;;;;;;15.04;51.48;101518.53;4977048;28;20041;-29
2022/08/08 01:37:51;;;;;;;1.60;1.50;;;;;;;15.04;51.58;101513.22;4979434;28;20508;-29
2022/08/08 01:40:28;;;;;;;1.77;1.67;;;;;;;14.93;51.69;101508.91;4997730;28;20026;-29
2022/08/08 01:42:57;;;;;;;2.35;1.40;;;;;;;14.94;50.82;101505.34;4995571;28;20030;-29
2022/08/08 01:46:10;;;;;;;1.60;1.50;;;;;;;14.83;50.41;101502.84;4991415;28;20039;-28
2022/08/08 01:49:03;;;;;;;1.80;1.70;;;;;;;14.74;50.63;101495.84;4973541;28;20079;-29
2022/08/08 01:51:35;;;;;;;2.08;1.63;;;;;;;14.71;50.85;101503.84;4970763;28;20022;-28
2022/08/08 01:54:33;;;;;;;2.03;1.90;;;;;;;14.74;50.86;101493.19;4994530;28;20019;-29
2022/08/08 01:57:39;;;;;;;2.80;1.88;;;;;;;14.70;50.51;101494.16;4977887;28;20014;-29
2022/08/08 02:00:11;;;;;;;2.33;2.00;;;;;;;14.65;50.40;101501.31;4958906;28;20424;-28
2022/08/08 02:03:00;;;;;;;1.90;1.70;;;;;;;14.56;50.49;101504.06;4974868;28;20518;-29
2022/08/08 02:05:29;;;;;;;2.22;1.90;;;;;;;14.54;50.39;101500.56;4987709;28;20096;-29
2022/08/08 02:08:15;;;;;;;2.40;2.20;;;;;;;14.52;50.47;101502.34;4995237;28;20030;-29
2022/08/08 02:10:59;;;;;;;1.70;1.60;;;;;;;14.53;50.54;101502.31;5010357;28;20045;-29
2022/08/08 02:13:30;;;;;;;1.90;1.80;;;;;;;14.49;50.04;101504.16;4976808;28;20026;-29
2022/08/08 02:15:55;;;;;;;;;;;;;;;14.46;50.13;101504.19;4983095;28;20484;-29
2022/08/08 02:18:44;;;;;;;3.17;1.73;;;;;;;14.42;50.65;101501.56;4997026;28;20363;-29
2022/08/08 02:24:15;;;;;;;2.80;1.80;;;;;;;14.26;50.55;101501.75;5004344;28;20040;-29
2022/08/08 02:26:48;;;;;;;1.85;1.75;;;;;;;14.24;50.86;101501.78;4988817;28;20033;-29
2022/08/08 02:29:39;;;;;;;1.70;1.60;;;;;;;14.27;50.96;101502.66;4997012;28;20038;-29
2022/08/08 02:32:25;;;;;;;1.92;1.83;;;;;;;14.33;51.08;101497.25;4998444;28;20029;-29
2022/08/08 02:35:25;;;;;;;1.80;1.70;;;;;;;14.30;51.02;101513.22;4986931;28;20599;-29
2022/08/08 02:37:56;;;;;;;1.88;1.77;;;;;;;14.26;51.08;101511.47;4992958;28;20030;-29
2022/08/08 02:40:45;;;;;;;1.95;1.85;;;;;;;14.14;51.32;101505.41;4978878;28;20034;-29
2022/08/08 02:43:48;;;;;;;2.10;1.80;;;;;;;14.16;51.63;101511.59;5000025;28;20498;-29
2022/08/08 02:46:31;;;;;;;2.30;2.15;;;;;;;14.19;50.99;101505.38;4993665;28;20030;-29
2022/08/08 02:49:15;;;;;;;1.80;1.70;;;;;;;14.08;51.26;101503.69;5001125;28;20025;-29
2022/08/08 02:52:04;;;;;;;1.90;1.80;;;;;;;14.05;51.32;101502.88;5007464;28;20026;-29
2022/08/08 02:54:52;;;;;;;2.22;2.05;;;;;;;13.97;51.01;101506.47;4994839;28;20477;-28
2022/08/08 02:57:29;;;;;;;3.15;1.88;;;;;;;14.02;51.54;101503.78;4974311;28;20018;-29
2022/08/08 03:00:28;;;;;;;2.22;2.05;;;;;;;14.02;51.09;101508.19;4993775;28;20046;-28
2022/08/08 03:03:28;;;;;;;2.65;2.17;;;;;;;13.88;51.20;101506.59;4995098;28;20045;-29
2022/08/08 03:06:11;;;;;;;2.00;1.90;;;;;;;13.84;51.58;101515.47;5000826;28;20073;-29
2022/08/08 03:08:58;;;;;;;2.15;1.98;;;;;;;13.85;52.21;101522.50;5000107;28;20406;-29
2022/08/08 03:11:26;;;;;;;2.67;2.40;;;;;;;13.89;52.03;101516.28;4997351;28;20027;-29
2022/08/08 03:13:57;;;;;;;1.95;1.85;;;;;;;13.89;51.88;101518.03;4996057;28;20022;-29
2022/08/08 03:16:44;;;;;;;2.10;1.90;;;;;;;13.88;51.79;101522.50;4993850;28;20038;-28
2022/08/08 03:19:37;;;;;;;2.33;2.00;;;;;;;13.82;52.03;101519.88;4999586;28;20073;-29
2022/08/08 03:22:02;;;;;;;2.58;2.38;;;;;;;13.84;52.59;101523.41;4994220;28;20058;-28
2022/08/08 03:24:27;;;;;;;1.83;1.73;;;;;;;13.86;52.69;101534.88;4993507;28;20068;-28
2022/08/08 03:27:00;;;;;;;2.08;1.90;;;;;;;13.86;52.66;101524.25;4995077;28;20490;-29
2022/08/08 03:29:29;;;;;;;2.20;2.00;;;;;;;13.83;53.33;101534.88;4978024;28;20030;-28
2022/08/08 03:34:38;;;;;;;2.05;1.88;;;;;;;13.81;52.69;101531.38;4999276;28;20057;-29
2022/08/08 03:37:04;;;;;;;2.05;1.85;;;;;;;13.78;52.43;101536.72;4993479;28;20468;-29
2022/08/08 03:39:29;;;;;;;2.30;2.00;;;;;;;13.75;52.92;101539.38;5007771;28;20045;-28
2022/08/08 03:41:55;;;;;;;2.63;2.38;;;;;;;13.68;52.90;101536.81;4996774;28;20029;-29
2022/08/08 03:44:20;;;;;;;2.10;2.00;;;;;;;13.71;53.06;101539.41;4993938;28;20081;-29
2022/08/08 03:46:46;;;;;;;2.05;1.88;;;;;;;13.71;53.39;101541.19;4988363;28;20045;-29
2022/08/08 03:49:17;;;;;;;2.20;2.03;;;;;;;13.69;53.19;101543.84;4993253;28;20030;-29
2022/08/08 03:51:43;;;;;;;3.22;2.08;;;;;;;13.64;52.53;101543.00;4973813;28;20109;-29
2022/08/08 03:54:08;;;;;;;2.20;2.10;;;;;;;13.65;52.50;101542.13;4999090;28;20458;-28
2022/08/08 03:56:34;;;;;;;2.72;2.53;;;;;;;13.57;52.66;101544.81;4973223;28;20030;-29
2022/08/08 03:58:59;;;;;;;2.17;2.08;;;;;;;13.47;52.82;101543.97;4991837;28;20496;-29
2022/08/08 04:01:37;;;;;;;2.80;2.20;;;;;;;13.53;52.84;101547.50;4975954;28;20026;-29
2022/08/08 04:04:02;;;;;;;1.92;1.83;;;;;;;13.47;52.98;101543.97;4993192;28;20034;-28
2022/08/08 04:06:28;;;;;;;2.15;2.00;;;;;;;13.43;52.79;101547.56;4992267;28;20034;-28
2022/08/08 04:08:53;;;;;;;2.40;1.90;;;;;;;13.46;53.54;101546.63;4998912;28;20030;-29
2022/08/08 04:11:19;;;;;;;2.72;2.50;;;;;;;13.41;52.72;101549.31;4997771;28;20446;-29
2022/08/08 04:13:44;;;;;;;2.67;2.47;;;;;;;13.43;53.43;101550.19;4992567;28;20100;-28
2022/08/08 04:16:09;;;;;;;5.80;2.15;;;;;;;13.43;53.58;101550.19;4992755;28;20458;-29
2022/08/08 04:18:35;;;;;;;2.22;2.10;;;;;;;13.43;53.39;101560.78;4995580;28;20117;-29
2022/08/08 04:21:00;;;;;;;4.72;2.53;;;;;;;13.43;53.08;101552.84;4991513;28;20126;-29
2022/08/08 04:23:25;;;;;;;2.63;2.05;;;;;;;13.44;53.07;101562.53;4992466;28;20109;-28
2022/08/08 04:25:51;;;;;;;3.85;2.25;;;;;;;13.50;53.16;101559.00;4975171;28;20033;-28
2022/08/08 04:28:16;;;;;;;2.30;2.20;;;;;;;13.44;53.65;101559.91;4994703;28;20049;-29
2022/08/08 04:30:41;;;;;;;2.88;2.50;;;;;;;13.36;53.54;101556.44;4992590;28;20026;-28
2022/08/08 04:33:07;;;;;;;2.33;2.20;;;;;;;13.38;54.07;101557.31;4975431;28;20077;-28
2022/08/08 04:35:32;;;;;;;2.80;2.25;;;;;;;13.41;53.48;101559.91;5010785;28;20057;-28
2022/08/08 04:37:57;;;;;;;2.15;1.90;;;;;;;13.47;53.60;101557.22;4993056;28;20109;-29
2022/08/08 04:40:23;;;;;;;2.78;2.45;;;;;;;13.45;53.82;101561.69;4990729;28;20018;-29
2022/08/08 04:42:50;;;;;;;2.50;2.20;;;;;;;13.46;53.30;101558.13;4994310;28;20070;-29
2022/08/08 04:45:15;;;;;;;2.55;2.28;;;;;;;13.43;53.24;101566.09;4991278;28;20023;-28
2022/08/08 04:47:41;;;;;;;2.80;2.20;;;;;;;13.47;53.11;101575.78;4992894;28;20033;-29
2022/08/08 04:50:07;;;;;;;2.50;2.30;;;;;;;13.45;52.91;101561.69;4995858;28;20514;-28
2022/08/08 04:52:32;;;;;;;2.60;2.40;;;;;;;13.49;53.17;101570.50;4995265;28;20549;-29
2022/08/08 04:54:57;;;;;;;2.30;2.10;;;;;;;13.44;53.36;101570.50;4990947;28;20109;-28
2022/08/08 04:57:23;;;;;;;3.38;2.40;;;;;;;13.46;53.14;101574.03;4994276;28;20157;-29
2022/08/08 04:59:48;;;;;;;2.50;2.30;;;;;;;13.52;53.31;101577.56;4992765;28;20490;-29
2022/08/08 05:02:13;;;;;;;2.50;2.30;;;;;;;13.54;53.41;101581.09;4991821;28;20019;-29
2022/08/08 05:04:39;;;;;;;2.55;2.35;;;;;;;13.59;53.68;101579.28;4995362;28;20034;-29
2022/08/08 05:07:05;;;;;;;2.78;2.40;;;;;;;13.64;54.00;101580.09;4991669;28;20500;-28
2022/08/08 05:09:30;;;;;;;5.05;2.35;;;;;;;13.69;54.20;101583.63;4974972;28;20045;-29
2022/08/08 05:11:56;;;;;;;2.55;2.35;;;;;;;13.59;53.53;101587.22;4991025;28;20034;-28
2022/08/08 05:14:21;;;;;;;2.42;2.22;;;;;;;13.72;53.87;101580.94;5006807;28;20049;-29
2022/08/08 05:16:46;;;;;;;2.47;2.28;;;;;;;13.83;53.15;101578.22;4975585;28;20026;-28
2022/08/08 05:19:12;;;;;;;2.40;2.20;;;;;;;13.86;53.83;101579.94;5011260;28;20113;-28
2022/08/08 05:21:39;;;;;;;2.88;2.35;;;;;;;13.95;53.07;101585.19;4996317;28;20084;-28
2022/08/08 05:24:05;;;;;;;2.88;2.40;;;;;;;13.97;53.35;101586.03;4996135;28;20026;-28
2022/08/08 05:26:31;;;;;;;2.85;2.58;;;;;;;14.02;52.98;101587.78;4995836;28;20077;-28
2022/08/08 05:28:56;;;;;;;2.80;2.60;;;;;;;14.05;53.00;101585.09;4978946;28;20027;-28
2022/08/08 05:31:21;;;;;;;2.45;2.25;;;;;;;14.05;53.76;101587.75;4996103;28;20018;-29
2022/08/08 05:33:47;;;;;;;3.92;2.55;;;;;;;14.07;52.99;101588.63;4995701;28;20435;-29
2022/08/08 05:36:15;;;;;;;3.80;2.63;;;;;;;14.09;52.68;101589.47;4995487;28;20040;-28
2022/08/08 05:38:45;;;;;;;3.35;2.67;;;;;;;14.18;52.62;101594.72;4995901;28;20472;-28
2022/08/08 05:41:13;;;;;;;4.75;2.50;;;;;;;14.27;52.80;101590.22;4995636;28;20030;-28
2022/08/08 05:43:39;;;;;;;2.92;2.10;;;;;;;14.33;52.32;101592.78;4995597;28;20106;-28
2022/08/08 05:46:06;;;;;;;2.05;1.75;;;;;;;14.36;52.20;101592.75;4978399;28;20473;-28
2022/08/08 05:48:32;;;;;;;3.28;2.45;;;;;;;14.42;52.67;101598.00;4977959;28;20033;-29
2022/08/08 05:50:58;;;;;;;3.53;2.53;;;;;;;14.45;52.42;101597.97;4995990;28;20019;-29
2022/08/08 05:53:26;;;;;;;2.65;2.42;;;;;;;14.52;52.38;101600.56;4995802;28;20029;-28
2022/08/08 05:55:57;;;;;;;2.70;2.50;;;;;;;14.60;52.30;101596.03;4995319;28;20026;-29
2022/08/08 05:58:30;;;;;;;3.72;2.50;;;;;;;14.68;52.44;101594.19;4995303;28;20494;-29
2022/08/08 06:00:57;;;;;;;3.25;2.28;;;;;;;14.77;52.16;101593.22;4995388;28;20038;-29
2022/08/08 06:03:23;;;;;;;2.55;2.10;;;;;;;14.85;51.93;101593.13;4994970;28;20118;-29
2022/08/08 06:05:52;;;;;;;2.42;2.20;;;;;;;14.94;51.87;101598.31;4961956;28;20030;-29
2022/08/08 06:08:23;;;;;;;2.30;2.05;;;;;;;15.03;51.78;101597.34;4995526;28;20113;-29
2022/08/08 06:10:49;;;;;;;2.80;2.05;;;;;;;15.10;51.93;101601.66;4977915;28;20022;-29
2022/08/08 06:13:14;;;;;;;4.45;2.38;;;;;;;15.19;52.21;101600.66;4994749;28;20034;-29
2022/08/08 06:15:42;;;;;;;4.18;2.63;;;;;;;15.29;52.29;101605.84;4994428;28;20432;-29
2022/08/08 06:18:09;;;;;;;2.50;2.30;;;;;;;15.37;52.62;101606.59;4977540;28;20377;-29
2022/08/08 06:20:35;;;;;;;3.15;2.85;;;;;;;15.43;52.08;101605.63;4994688;28;20069;-28
2022/08/08 06:23:00;;;;;;;3.10;2.78;;;;;;;15.54;52.22;101600.19;4995121;28;20227;-29
2022/08/08 06:25:26;;;;;;;3.03;2.25;;;;;;;15.62;52.79;101609.81;4994946;28;20077;-29
2022/08/08 06:27:56;;;;;;;2.53;2.33;;;;;;;15.74;52.84;101608.72;4994804;28;20030;-29
2022/08/08 06:30:22;;;;;;;2.78;2.58;;;;;;;15.82;52.17;101608.59;4994592;28;20392;-29
2022/08/08 06:32:50;;;;;;;3.67;2.63;;;;;;;15.90;52.40;101604.03;4994740;28;20088;-29
2022/08/08 06:35:16;;;;;;;3.03;2.40;;;;;;;15.98;52.67;101601.28;4990416;28;20042;-29
2022/08/08 06:37:48;;;;;;;3.70;2.90;;;;;;;16.09;52.23;101605.53;4969228;28;20029;-29
2022/08/08 06:40:14;;;;;;;3.53;3.00;;;;;;;16.17;51.68;101606.28;4994814;28;20034;-28
2022/08/08 06:42:44;;;;;;;3.03;2.45;;;;;;;16.25;51.92;101606.16;4995040;28;20026;-29
2022/08/08 06:45:09;;;;;;;3.22;2.47;;;;;;;16.35;52.08;101606.84;4993540;28;20062;-29
2022/08/08 06:47:35;;;;;;;5.90;2.70;;;;;;;16.45;52.10;101605.78;4977072;28;20498;-29
2022/08/08 06:50:01;;;;;;;3.38;3.08;;;;;;;16.56;52.15;101608.22;4994858;28;20101;-29
2022/08/08 06:52:26;;;;;;;4.55;3.42;;;;;;;16.66;51.97;101603.59;4994388;28;20025;-29
2022/08/08 06:54:54;;;;;;;3.20;2.83;;;;;;;16.77;51.52;101598.94;4994482;28;20034;-28
2022/08/08 06:57:20;;;;;;;3.22;2.92;;;;;;;16.87;51.47;101596.97;4994323;28;20030;-28
2022/08/08 06:59:45;;;;;;;3.80;2.72;;;;;;;16.99;51.36;101605.59;4994675;28;20026;-29
2022/08/08 07:02:22;;;;;;;3.50;2.75;;;;;;;17.10;51.41;101605.44;4994483;28;20376;-29
2022/08/08 07:04:55;;;;;;;3.05;2.83;;;;;;;17.21;51.47;101603.41;4994140;28;20074;-29
2022/08/08 07:07:49;;;;;;;2.88;2.67;;;;;;;17.29;51.16;101612.09;4976829;28;20033;-29
2022/08/08 07:10:19;;;;;;;3.50;2.65;;;;;;;17.45;51.37;101603.75;4976752;28;20033;-28
2022/08/08 07:12:51;;;;;;;3.28;2.88;;;;;;;17.57;51.06;101611.47;4993525;28;20545;-29
2022/08/08 07:15:25;;;;;;;3.97;2.90;;;;;;;17.71;51.04;101615.59;4994092;28;20109;-29
2022/08/08 07:17:50;;;;;;;3.33;3.03;;;;;;;17.76;50.81;101616.34;4976473;28;20031;-29
2022/08/08 07:20:26;;;;;;;4.70;3.17;;;;;;;17.95;50.79;101618.56;4976532;28;20400;-30
2022/08/08 07:23:06;;;;;;;5.20;3.20;;;;;;;18.13;50.43;101616.38;4993904;28;20085;-29
2022/08/08 07:25:38;;;;;;;8.70;3.95;;;;;;;18.23;50.44;101615.22;4993836;28;20607;-29
2022/08/08 07:28:09;;;;;;;7.18;3.72;;;;;;;18.42;50.35;101623.63;4993976;28;20030;-29
2022/08/08 07:30:35;;;;;;;3.45;3.15;;;;;;;18.54;50.24;101622.41;4993588;28;20499;-29
2022/08/08 07:33:02;;;;;;;6.97;3.35;;;;;;;18.68;50.30;101627.34;4993454;28;20034;-29
2022/08/08 07:35:28;;;;;;;5.72;4.00;;;;;;;18.83;49.95;101626.06;4993924;28;20491;-29
2022/08/08 07:37:55;;;;;;;5.80;3.42;;;;;;;19.01;49.87;101626.44;4993490;28;20492;-29
2022/08/08 07:40:22;;;;;;;7.30;3.58;;;;;;;19.20;49.55;101628.56;4992473;28;20022;-29
2022/08/08 07:42:48;;;;;;;11.15;3.58;;;;;;;19.27;49.56;101627.47;4993389;28;20026;-29
2022/08/08 07:45:13;;;;;;;6.95;3.42;;;;;;;19.31;50.18;101634.47;4993816;28;20534;-28
2022/08/08 07:47:39;;;;;;;5.22;3.85;;;;;;;19.59;49.42;101633.63;4993283;28;20030;-29
2022/08/08 07:50:05;;;;;;;7.13;3.95;;;;;;;19.63;49.71;101634.41;4993666;28;20029;-29
2022/08/08 07:52:30;;;;;;;3.65;3.15;;;;;;;19.83;49.17;101641.78;4993754;28;20018;-29
2022/08/08 07:55:04;;;;;;;10.43;3.75;;;;;;;19.93;49.22;101647.69;4975708;28;20161;-29
2022/08/08 07:57:32;;;;;;;3.50;3.17;;;;;;;19.97;49.20;101646.66;4975496;28;20030;-28
2022/08/08 08:00:04;;;;;;;4.90;2.97;;;;;;;20.21;49.18;101648.63;4992907;28;20095;-28
2022/08/08 08:03:15;;;;;;;3.72;3.13;;;;;;;20.37;48.51;101649.81;4993140;28;20601;-29
2022/08/08 08:05:44;;;;;;;6.05;3.22;;;;;;;20.55;49.06;101650.13;4970115;28;20484;-29
2022/08/08 08:08:18;;;;;;;5.55;3.00;;;;;;;20.75;48.29;101640.47;4993107;28;20031;-29
2022/08/08 08:10:45;;;;;;;4.53;2.85;;;;;;;20.89;47.89;101643.56;4993259;28;20034;-29
2022/08/08 08:13:24;;;;;;;4.97;3.00;;;;;;;21.04;48.00;101651.06;4992796;28;20058;-28
2022/08/08 08:16:06;;;;;;;4.43;2.80;;;;;;;21.17;47.56;101655.03;4975500;28;20026;-29
2022/08/08 08:18:38;;;;;;;8.38;3.35;;;;;;;21.30;48.00;101647.38;4993479;28;20122;-29
2022/08/08 08:21:05;;;;;;;6.65;3.40;;;;;;;21.37;47.43;101651.56;4993243;28;20058;-29
2022/08/08 08:23:30;;;;;;;4.22;3.13;;;;;;;21.59;47.84;101647.16;4991234;28;20030;-28
2022/08/08 08:25:56;;;;;;;5.65;2.58;;;;;;;21.71;47.19;101649.34;4993105;28;20434;-28
2022/08/08 08:28:21;;;;;;;6.10;2.90;;;;;;;21.88;46.62;101658.56;4992954;28;20029;-28
2022/08/08 08:30:46;;;;;;;4.18;3.22;;;;;;;22.00;46.88;101654.47;4992306;28;20023;-29
2022/08/08 08:33:12;;;;;;;3.92;3.17;;;;;;;22.17;46.08;101649.28;4975337;28;20026;-28
2022/08/08 08:35:38;;;;;;;5.78;2.60;;;;;;;22.37;46.21;101650.22;4992788;28;20076;-29
2022/08/08 08:38:03;;;;;;;5.07;3.03;;;;;;;22.57;45.71;101650.31;4992346;28;20042;-28
2022/08/08 08:40:29;;;;;;;4.68;2.80;;;;;;;22.60;45.49;101645.66;4992645;28;20030;-28
2022/08/08 08:42:55;;;;;;;4.45;2.60;;;;;;;22.77;45.39;101641.38;4992638;28;20022;-28
2022/08/08 08:45:21;;;;;;;4.60;2.92;;;;;;;22.92;45.07;101651.41;4972090;28;20476;-29
2022/08/08 08:47:47;;;;;;;3.75;2.67;;;;;;;23.11;45.08;101647.00;4990727;28;20033;-29
2022/08/08 08:50:12;;;;;;;4.75;2.88;;;;;;;23.26;44.51;101643.56;4992235;28;20146;-29
2022/08/08 08:52:41;;;;;;;3.58;2.60;;;;;;;23.37;44.27;101645.78;4991521;28;20105;-29
2022/08/08 08:55:12;;;;;;;3.30;2.60;;;;;;;23.55;44.13;101653.91;4992619;28;20027;-29
2022/08/08 08:57:40;;;;;;;4.97;3.05;;;;;;;23.74;44.04;101650.31;4992090;28;20049;-28
2022/08/08 09:00:07;;;;;;;3.33;2.83;;;;;;;23.86;43.61;101656.91;4958815;28;20022;-29
2022/08/08 09:02:34;;;;;;;4.32;2.55;;;;;;;23.94;43.11;101657.41;4992176;28;20085;-29
2022/08/08 09:05:03;;;;;;;4.28;2.72;;;;;;;24.04;42.94;101649.75;4992313;28;20065;-28
2022/08/08 09:07:33;;;;;;;5.07;3.03;;;;;;;24.26;42.62;101649.53;4991961;28;20030;-29
2022/08/08 09:09:58;;;;;;;3.45;3.00;;;;;;;24.40;42.86;101646.09;4992172;28;20026;-29
2022/08/08 09:12:25;;;;;;;3.95;3.65;;;;;;;24.65;41.84;101650.22;4974852;28;20077;-29
2022/08/08 09:14:53;;;;;;;5.18;2.78;;;;;;;24.67;42.19;101642.91;5006834;28;20518;-29
2022/08/08 09:17:19;;;;;;;2.72;2.53;;;;;;;24.78;42.43;101641.44;4992107;28;20038;-29
2022/08/08 09:19:47;;;;;;;4.00;2.60;;;;;;;24.93;41.84;101647.84;4974657;28;20037;-29
2022/08/08 09:22:13;;;;;;;3.70;3.03;;;;;;;25.00;41.25;101643.88;4992184;28;20069;-29
2022/08/08 09:24:38;;;;;;;3.25;2.95;;;;;;;25.16;41.11;101648.41;4992077;28;20029;-28
2022/08/08 09:27:11;;;;;;;3.08;2.78;;;;;;;25.30;40.45;101642.22;4992096;28;20109;-28
2022/08/08 09:30:01;;;;;;;3.08;2.53;;;;;;;25.43;41.13;101640.59;4991929;28;20022;-29
2022/08/08 09:32:38;;;;;;;3.03;2.80;;;;;;;25.57;40.72;101644.34;4992265;28;20416;-28
2022/08/08 09:35:07;;;;;;;3.45;3.05;;;;;;;25.67;41.07;101633.91;4972743;28;20031;-29
2022/08/08 09:37:43;;;;;;;3.53;2.53;;;;;;;25.74;39.59;101633.44;4982390;28;20530;-28
2022/08/08 09:40:10;;;;;;;2.80;2.35;;;;;;;25.77;39.38;101635.09;4992141;28;20042;-29
2022/08/08 09:42:47;;;;;;;4.60;2.65;;;;;;;25.93;39.42;101635.06;4974572;28;20066;-28
2022/08/08 09:45:23;;;;;;;3.42;2.60;;;;;;;26.10;39.65;101627.75;4992226;28;20423;-28
2022/08/08 09:47:48;;;;;;;3.85;2.72;;;;;;;26.16;38.71;101627.41;4974397;28;20400;-28
2022/08/08 09:50:16;;;;;;;5.10;3.17;;;;;;;26.29;39.10;101632.09;4991697;28;20032;-28
2022/08/08 09:52:47;;;;;;;2.60;2.40;;;;;;;26.47;39.14;101630.97;4991195;28;20014;-29
2022/08/08 09:55:12;;;;;;;2.95;2.72;;;;;;;26.70;38.08;101631.38;4974428;28;20436;-28
2022/08/08 09:57:39;;;;;;;4.05;2.80;;;;;;;26.88;38.64;101625.78;4991333;28;20026;-29
2022/08/08 10:00:08;;;;;;;2.60;2.40;;;;;;;26.82;37.54;101628.84;4991860;28;20042;-28
2022/08/08 10:02:35;;;;;;;4.07;3.20;;;;;;;26.94;37.08;101627.22;4991641;28;20535;-29
2022/08/08 10:05:03;;;;;;;5.10;3.28;;;;;;;27.18;36.85;101622.09;4994104;28;20073;-28
2022/08/08 10:07:29;;;;;;;3.03;2.75;;;;;;;27.34;37.36;101624.63;4995077;28;20096;-29
2022/08/08 10:09:54;;;;;;;3.10;2.65;;;;;;;27.36;37.86;101619.13;4995179;28;20472;-29
2022/08/08 10:12:30;;;;;;;2.88;2.58;;;;;;;27.40;36.64;101612.53;4995592;28;20027;-28
2022/08/08 10:14:59;;;;;;;3.38;2.92;;;;;;;27.56;36.85;101622.34;4994632;28;20034;-28
2022/08/08 10:17:24;;;;;;;2.60;2.40;;;;;;;27.65;37.18;101625.34;4995061;28;20532;-28
2022/08/08 10:19:55;;;;;;;2.40;2.20;;;;;;;27.71;36.94;101621.34;4977267;28;20129;-29
2022/08/08 10:22:23;;;;;;;4.22;2.95;;;;;;;27.74;36.46;101610.31;4994936;28;20038;-28
2022/08/08 10:24:48;;;;;;;3.38;2.80;;;;;;;27.86;36.62;101613.16;4995040;28;20081;-28
2022/08/08 10:27:14;;;;;;;4.60;3.35;;;;;;;27.95;35.28;101612.53;4994926;28;20023;-29
2022/08/08 10:29:44;;;;;;;3.13;2.78;;;;;;;28.03;35.73;101603.88;5010136;28;20383;-28
2022/08/08 10:35:00;;;;;;;4.60;2.75;;;;;;;28.02;35.55;101613.84;4994606;28;20510;-28
2022/08/08 10:37:30;;;;;;;2.67;2.10;;;;;;;28.09;35.51;101613.41;4994423;28;20041;-28
2022/08/08 10:39:55;;;;;;;;;;;;;;;28.29;35.01;101609.34;4995545;28;20022;-28
2022/08/08 10:42:31;;;;;;;4.32;2.20;;;;;;;28.41;35.21;101605.78;4994302;28;19913;-28
2022/08/08 10:45:01;;;;;;;3.58;2.30;;;;;;;28.49;34.77;101610.66;4994723;28;20398;-28
2022/08/08 10:47:27;;;;;;;3.10;2.33;;;;;;;28.50;35.16;101606.97;4994233;28;20517;-28
2022/08/08 10:50:01;;;;;;;2.72;2.47;;;;;;;28.55;35.35;101595.78;4994823;28;20030;-28
2022/08/08 10:52:37;;;;;;;2.88;2.65;;;;;;;28.62;35.30;101597.09;4994381;28;20025;-29
2022/08/08 10:55:13;;;;;;;3.13;2.58;;;;;;;28.74;35.61;101584.47;4994873;28;20041;-28
2022/08/08 10:57:40;;;;;;;2.92;2.47;;;;;;;28.83;34.67;101590.22;4994283;28;20041;-28
2022/08/08 11:00:08;;;;;;;2.72;2.42;;;;;;;28.97;34.48;101590.09;4994573;28;20384;-28
2022/08/08 11:02:34;;;;;;;2.65;2.10;;;;;;;29.09;34.43;101584.75;4994227;28;20050;-29
2022/08/08 11:05:02;;;;;;;3.60;2.92;;;;;;;29.12;34.09;101589.94;4993892;28;20400;-28
2022/08/08 11:07:32;;;;;;;3.05;2.10;;;;;;;29.13;33.99;101586.25;4994354;28;20097;-28
2022/08/08 11:10:18;;;;;;;3.03;2.70;;;;;;;29.23;34.58;101590.00;4994246;28;20033;-29
2022/08/08 11:12:51;;;;;;;3.58;2.13;;;;;;;29.37;35.36;101585.41;4993702;28;20476;-29
2022/08/08 11:15:22;;;;;;;3.50;2.20;;;;;;;29.47;34.32;101583.72;4976252;28;20034;-28
2022/08/08 11:17:48;;;;;;;2.13;1.92;;;;;;;29.58;33.78;101580.22;4993645;28;20027;-28
2022/08/08 11:20:16;;;;;;;3.50;2.55;;;;;;;29.60;32.80;101589.13;4976067;28;20030;-28
2022/08/08 11:22:42;;;;;;;2.47;2.08;;;;;;;29.75;33.39;101578.94;4993748;28;20093;-28
2022/08/08 11:25:11;;;;;;;2.15;1.95;;;;;;;29.80;31.87;101582.16;4976326;28;20520;-28
2022/08/08 11:27:37;;;;;;;3.47;1.90;;;;;;;29.98;32.54;101581.72;4993892;28;20022;-29
2022/08/08 11:30:06;;;;;;;2.97;1.92;;;;;;;30.01;32.28;101576.00;4993738;28;20052;-29
2022/08/08 11:32:36;;;;;;;1.80;1.70;;;;;;;30.06;31.89;101578.38;4993531;28;20030;-29
2022/08/08 11:35:21;;;;;;;1.98;1.88;;;;;;;30.07;32.11;101574.66;4976179;28;20026;-28
2022/08/08 11:37:46;;;;;;;2.55;1.92;;;;;;;30.08;31.94;101570.97;4993468;28;20026;-28
2022/08/08 11:40:13;;;;;;;3.13;1.88;;;;;;;30.16;31.83;101564.94;4993896;28;20117;-29
2022/08/08 11:42:41;;;;;;;2.83;1.60;;;;;;;30.15;32.13;101564.09;4993343;28;20038;-28
2022/08/08 11:45:08;;;;;;;3.15;1.70;;;;;;;30.19;32.65;101567.44;4993979;28;20033;-29
2022/08/08 11:47:35;;;;;;;4.50;1.98;;;;;;;30.26;32.47;101578.69;4993018;28;20022;-28
2022/08/08 11:50:06;;;;;;;3.20;2.00;;;;;;;30.32;32.63;101568.22;4993152;28;20019;-28
2022/08/08 11:52:32;;;;;;;2.08;1.90;;;;;;;30.39;32.32;101567.69;4975686;28;20472;-28
2022/08/08 11:54:57;;;;;;;2.78;2.28;;;;;;;30.30;32.06;101570.16;4993319;28;20026;-29
2022/08/08 11:57:27;;;;;;;1.98;1.75;;;;;;;30.36;31.96;101568.81;4993109;28;20112;-28
2022/08/08 12:00:00;;;;;;;1.73;1.63;;;;;;;30.40;32.00;101559.41;4973922;28;20049;-28